createdAt,value
2023-05-03T00:00:56.145Z,5.22
2023-05-03T00:03:23.728Z,4.88
2023-05-03T00:05:50.265Z,5.40
2023-05-03T00:08:16.973Z,5.50
2023-05-03T00:10:43.478Z,5.15
2023-05-03T00:13:09.831Z,5.63
2023-05-03T00:15:36.171Z,4.70
2023-05-03T00:18:03.137Z,4.85
2023-05-03T00:20:30.724Z,5.63
2023-05-03T00:22:57.065Z,4.03
2023-05-03T00:25:25.026Z,4.63
2023-05-03T00:27:51.585Z,5.55
2023-05-03T00:30:19.594Z,5.53
2023-05-03T00:32:46.260Z,5.53
2023-05-03T00:35:13.040Z,4.60
2023-05-03T00:37:39.440Z,5.47
2023-05-03T00:40:07.368Z,5.30
2023-05-03T00:42:36.566Z,4.75
2023-05-03T00:45:04.995Z,4.95
2023-05-03T00:47:32.229Z,4.22
2023-05-03T00:50:00.836Z,4.70
2023-05-03T00:52:27.887Z,4.43
2023-05-03T00:54:54.470Z,5.15
2023-05-03T00:57:22.700Z,5.03
2023-05-03T00:59:49.797Z,5.75
2023-05-03T01:02:16.117Z,5.60
2023-05-03T01:04:43.422Z,5.88
2023-05-03T01:07:30.828Z,6.00
2023-05-03T01:10:08.770Z,5.20
2023-05-03T01:12:59.997Z,5.22
2023-05-03T01:16:00.956Z,5.32
2023-05-03T01:18:33.938Z,5.78
2023-05-03T01:21:02.553Z,5.53
2023-05-03T01:23:54.777Z,6.00
2023-05-03T01:26:26.008Z,5.25
2023-05-03T01:28:52.586Z,5.00
2023-05-03T01:31:24.136Z,5.38
2023-05-03T01:34:02.105Z,5.30
2023-05-03T01:36:35.068Z,5.80
2023-05-03T01:39:09.450Z,5.57
2023-05-03T01:41:40.504Z,5.25
2023-05-03T01:44:08.967Z,5.15
2023-05-03T01:46:42.451Z,5.15
2023-05-03T01:49:09.133Z,5.30
2023-05-03T01:51:35.561Z,5.05
2023-05-03T01:54:01.937Z,5.25
2023-05-03T01:56:28.274Z,6.15
2023-05-03T01:58:54.828Z,5.35
2023-05-03T02:01:21.230Z,4.80
2023-05-03T02:03:47.707Z,5.60
2023-05-03T02:06:14.379Z,5.40
2023-05-03T02:08:41.079Z,5.30
2023-05-03T02:11:07.841Z,5.55
2023-05-03T02:13:35.456Z,5.47
2023-05-03T02:16:01.819Z,5.57
2023-05-03T02:18:31.326Z,5.25
2023-05-03T02:20:58.096Z,5.70
2023-05-03T02:23:24.557Z,5.50
2023-05-03T02:25:51.311Z,5.30
2023-05-03T02:28:17.927Z,5.93
2023-05-03T02:30:44.371Z,5.55
2023-05-03T02:33:10.906Z,5.68
2023-05-03T02:35:37.325Z,5.07
2023-05-03T02:38:03.944Z,6.20
2023-05-03T02:40:30.516Z,5.97
2023-05-03T02:42:56.879Z,5.93
2023-05-03T02:45:23.678Z,5.35
2023-05-03T02:47:51.397Z,5.75
2023-05-03T02:50:18.064Z,5.35
2023-05-03T02:52:44.561Z,5.82
2023-05-03T02:55:10.903Z,5.38
2023-05-03T02:57:37.333Z,6.00
2023-05-03T03:00:05.874Z,5.78
2023-05-03T03:02:33.371Z,5.60
2023-05-03T03:04:59.914Z,5.65
2023-05-03T03:07:26.549Z,5.63
2023-05-03T03:09:52.936Z,5.32
2023-05-03T03:12:19.411Z,5.65
2023-05-03T03:14:45.762Z,6.18
2023-05-03T03:17:13.134Z,5.95
2023-05-03T03:19:40.972Z,6.00
2023-05-03T03:22:07.885Z,6.00
2023-05-03T03:24:34.716Z,6.18
2023-05-03T03:27:01.127Z,6.45
2023-05-03T03:29:30.061Z,5.68
2023-05-03T03:31:57.387Z,5.78
2023-05-03T03:34:24.025Z,5.78
2023-05-03T03:36:50.325Z,5.75
2023-05-03T03:39:16.772Z,5.55
2023-05-03T03:41:43.930Z,5.25
2023-05-03T03:44:10.534Z,6.15
2023-05-03T03:46:37.056Z,7.32
2023-05-03T03:49:04.180Z,7.07
2023-05-03T03:51:31.375Z,7.00
2023-05-03T03:53:57.788Z,6.43
2023-05-03T03:56:25.374Z,7.05
2023-05-03T03:58:51.799Z,5.97
2023-05-03T04:01:18.225Z,6.45
2023-05-03T04:03:47.831Z,5.93
2023-05-03T04:06:14.417Z,5.95
2023-05-03T04:08:42.355Z,6.10
2023-05-03T04:11:15.453Z,6.32
2023-05-03T04:13:41.892Z,6.20
2023-05-03T04:16:08.992Z,6.35
2023-05-03T04:18:35.833Z,7.00
2023-05-03T04:21:02.441Z,6.65
2023-05-03T04:23:29.065Z,6.75
2023-05-03T04:25:57.136Z,6.30
2023-05-03T04:28:23.688Z,6.60
2023-05-03T04:30:50.732Z,7.00
2023-05-03T04:33:17.382Z,6.35
2023-05-03T04:35:43.756Z,7.70
2023-05-03T04:38:10.326Z,7.82
2023-05-03T04:40:37.782Z,7.38
2023-05-03T04:43:04.388Z,8.00
2023-05-03T04:45:31.192Z,7.43
2023-05-03T04:47:57.607Z,7.45
2023-05-03T04:50:24.346Z,7.25
2023-05-03T04:52:50.789Z,8.15
2023-05-03T04:55:17.278Z,7.53
2023-05-03T04:57:43.887Z,6.88
2023-05-03T05:00:11.276Z,7.55
2023-05-03T05:02:38.118Z,7.00
2023-05-03T05:05:04.834Z,6.97
2023-05-03T05:07:31.445Z,6.65
2023-05-03T05:09:57.853Z,7.50
2023-05-03T05:12:24.232Z,6.63
2023-05-03T05:14:50.827Z,6.82
2023-05-03T05:17:17.269Z,7.13
2023-05-03T05:19:44.049Z,7.22
2023-05-03T05:22:10.686Z,7.07
2023-05-03T05:24:37.050Z,7.20
2023-05-03T05:27:04.620Z,6.88
2023-05-03T05:29:31.020Z,7.00
2023-05-03T05:31:57.491Z,6.55
2023-05-03T05:34:23.940Z,6.45
2023-05-03T05:36:52.340Z,6.55
2023-05-03T05:41:45.516Z,6.30
2023-05-03T05:44:13.240Z,6.57
2023-05-03T05:46:39.668Z,6.40
2023-05-03T05:49:06.763Z,6.82
2023-05-03T05:51:33.297Z,6.22
2023-05-03T05:53:59.914Z,6.25
2023-05-03T05:56:26.735Z,6.68
2023-05-03T05:58:53.522Z,6.65
2023-05-03T06:01:19.894Z,6.30
2023-05-03T06:03:46.282Z,6.88
2023-05-03T06:08:54.028Z,6.38
2023-05-03T06:11:21.419Z,6.95
2023-05-03T06:13:53.259Z,6.13
2023-05-03T06:16:20.797Z,6.78
2023-05-03T06:18:47.178Z,5.97
2023-05-03T06:21:13.810Z,6.30
2023-05-03T06:23:42.098Z,6.68
2023-05-03T06:26:10.473Z,6.05
2023-05-03T06:28:38.927Z,6.88
2023-05-03T06:33:35.048Z,5.80
2023-05-03T06:36:04.932Z,5.85
2023-05-03T06:38:31.923Z,5.65
2023-05-03T06:40:59.933Z,6.00
2023-05-03T06:43:29.087Z,6.15
2023-05-03T06:45:55.635Z,5.90
2023-05-03T06:48:22.203Z,5.68
2023-05-03T06:50:54.993Z,6.40
2023-05-03T06:53:21.746Z,5.80
2023-05-03T06:55:49.273Z,5.22
2023-05-03T06:58:16.682Z,5.70
2023-05-03T07:00:45.045Z,5.68
2023-05-03T07:03:13.634Z,5.40
2023-05-03T07:08:06.826Z,5.03
2023-05-03T07:10:33.465Z,5.93
2023-05-03T07:13:01.311Z,5.30
2023-05-03T07:15:27.971Z,5.63
2023-05-03T07:17:58.117Z,6.03
2023-05-03T07:20:26.613Z,4.53
2023-05-03T07:25:23.715Z,5.60
2023-05-03T07:27:54.897Z,5.13
2023-05-03T07:30:25.102Z,5.20
2023-05-03T07:32:51.918Z,4.88
2023-05-03T07:35:19.919Z,4.28
2023-05-03T07:37:46.325Z,4.70
2023-05-03T07:40:12.851Z,4.40
2023-05-03T07:42:39.411Z,5.20
2023-05-03T07:45:06.992Z,4.70
2023-05-03T07:47:37.840Z,3.90
2023-05-03T07:50:06.050Z,5.18
2023-05-03T07:52:40.352Z,4.50
2023-05-03T07:55:07.360Z,4.72
2023-05-03T07:57:35.101Z,5.05
2023-05-03T08:02:51.453Z,5.65
2023-05-03T08:05:19.412Z,4.78
2023-05-03T08:07:47.132Z,5.18
2023-05-03T08:10:13.529Z,3.97
2023-05-03T08:12:42.011Z,3.90
2023-05-03T08:15:09.887Z,3.72
2023-05-03T08:17:45.253Z,4.03
2023-05-03T08:20:16.945Z,3.05
2023-05-03T08:22:45.052Z,3.13
2023-05-03T08:25:12.580Z,2.83
2023-05-03T08:27:39.973Z,2.70
2023-05-03T08:30:07.740Z,3.05
2023-05-03T08:32:35.785Z,3.40
2023-05-03T08:35:07.879Z,3.40
2023-05-03T08:37:39.976Z,2.90
2023-05-03T08:40:11.275Z,2.60
2023-05-03T08:42:45.070Z,3.00
2023-05-03T08:45:15.812Z,3.17
2023-05-03T08:47:45.193Z,2.85
2023-05-03T08:50:13.194Z,2.60
2023-05-03T08:52:45.051Z,2.80
2023-05-03T08:55:13.124Z,2.85
2023-05-03T08:57:41.039Z,2.97
2023-05-03T09:00:14.138Z,2.67
2023-05-03T09:02:46.214Z,2.80
2023-05-03T09:05:27.635Z,3.17
2023-05-03T09:08:10.534Z,3.33
2023-05-03T09:10:43.257Z,2.90
2023-05-03T09:13:13.220Z,3.17
2023-05-03T09:15:42.633Z,2.95
2023-05-03T09:18:17.238Z,2.83
2023-05-03T09:20:53.390Z,2.42
2023-05-03T09:23:31.078Z,2.80
2023-05-03T09:25:59.892Z,2.90
2023-05-03T09:31:06.912Z,2.42
2023-05-03T09:33:34.215Z,2.97
2023-05-03T09:36:01.591Z,2.65
2023-05-03T09:38:40.179Z,3.08
2023-05-03T09:41:08.781Z,2.80
2023-05-03T09:43:48.122Z,3.10
2023-05-03T09:46:14.753Z,2.50
2023-05-03T09:48:41.600Z,3.00
2023-05-03T09:51:10.595Z,2.60
2023-05-03T09:53:43.963Z,2.92
2023-05-03T09:56:13.705Z,2.80
2023-05-03T09:58:41.592Z,2.63
2023-05-03T10:01:10.467Z,2.50
2023-05-03T10:03:43.749Z,3.53
2023-05-03T10:06:17.044Z,3.40
2023-05-03T10:08:55.037Z,2.75
2023-05-03T10:11:28.211Z,2.78
2023-05-03T10:13:55.961Z,2.50
2023-05-03T10:16:29.479Z,3.00
2023-05-03T10:19:17.371Z,2.88
2023-05-03T10:22:06.631Z,3.00
2023-05-03T10:24:39.319Z,3.38
2023-05-03T10:27:11.887Z,2.97
2023-05-03T10:29:53.607Z,2.85
2023-05-03T10:32:41.800Z,2.83
2023-05-03T10:35:10.253Z,2.45
2023-05-03T10:37:37.963Z,3.53
2023-05-03T10:40:12.150Z,3.03
2023-05-03T10:42:56.951Z,3.15
2023-05-03T10:45:28.504Z,3.33
2023-05-03T10:48:21.228Z,3.00
2023-05-03T10:50:48.172Z,3.40
2023-05-03T10:53:38.059Z,2.63
2023-05-03T10:56:08.522Z,3.72
2023-05-03T10:58:37.503Z,3.60
2023-05-03T11:01:07.769Z,3.08
2023-05-03T11:03:51.735Z,2.80
2023-05-03T11:06:35.709Z,3.42
2023-05-03T11:09:07.940Z,3.20
2023-05-03T11:11:39.813Z,3.00
2023-05-03T11:14:07.568Z,3.55
2023-05-03T11:16:36.664Z,3.30
2023-05-03T11:19:06.665Z,3.20
2023-05-03T11:21:34.811Z,3.70
2023-05-03T11:24:02.106Z,3.55
2023-05-03T11:26:28.571Z,3.60
2023-05-03T11:28:55.878Z,4.32
2023-05-03T11:31:23.326Z,3.65
2023-05-03T11:33:51.330Z,3.03
2023-05-03T11:36:18.366Z,3.72
2023-05-03T11:38:47.441Z,3.30
2023-05-03T11:41:21.095Z,3.63
2023-05-03T11:44:00.453Z,3.60
2023-05-03T11:46:35.061Z,4.05
2023-05-03T11:49:04.117Z,4.05
2023-05-03T11:51:31.370Z,3.15
2023-05-03T11:54:06.849Z,3.85
2023-05-03T11:56:41.195Z,4.15
2023-05-03T11:59:07.768Z,4.05
2023-05-03T12:01:35.441Z,4.00
2023-05-03T12:04:05.416Z,4.07
2023-05-03T12:06:35.915Z,3.95
2023-05-03T12:09:04.423Z,3.90
2023-05-03T12:11:40.493Z,4.38
2023-05-03T12:14:07.201Z,4.55
2023-05-03T12:16:51.636Z,3.72
2023-05-03T12:19:32.036Z,3.80
2023-05-03T12:22:22.943Z,4.07
2023-05-03T12:24:49.341Z,3.65
2023-05-03T12:27:19.026Z,3.90
2023-05-03T12:29:47.360Z,3.83
2023-05-03T12:32:14.518Z,3.92
2023-05-03T12:34:43.443Z,4.45
2023-05-03T12:37:12.311Z,4.35
2023-05-03T12:39:40.341Z,4.03
2023-05-03T12:42:09.132Z,4.13
2023-05-03T12:44:36.733Z,4.25
2023-05-03T12:47:04.496Z,4.45
2023-05-03T12:49:31.586Z,4.25
2023-05-03T12:54:33.384Z,4.28
2023-05-03T12:57:08.169Z,3.90
2023-05-03T12:59:41.640Z,4.13
2023-05-03T13:07:14.819Z,4.43
2023-05-03T13:12:28.344Z,4.47
2023-05-03T13:14:57.826Z,4.30
2023-05-03T13:17:24.724Z,4.57
2023-05-03T13:19:52.920Z,4.95
2023-05-03T13:22:19.580Z,4.70
2023-05-03T13:24:48.344Z,4.03
2023-05-03T13:27:16.129Z,3.72
2023-05-03T13:29:42.618Z,4.18
2023-05-03T13:32:09.655Z,5.07
2023-05-03T13:34:36.430Z,4.10
2023-05-03T13:37:04.157Z,4.60
2023-05-03T13:39:30.755Z,4.30
2023-05-03T13:41:57.106Z,4.18
2023-05-03T13:44:26.660Z,3.80
2023-05-03T13:46:53.934Z,4.50
2023-05-03T13:49:20.697Z,4.18
2023-05-03T13:51:47.296Z,4.00
2023-05-03T13:54:15.474Z,4.28
2023-05-03T13:56:43.304Z,4.40
2023-05-03T13:59:16.656Z,4.35
2023-05-03T14:01:43.636Z,3.65
2023-05-03T14:04:10.876Z,4.03
2023-05-03T14:06:40.353Z,4.43
2023-05-03T14:09:09.032Z,3.70
2023-05-03T14:11:35.631Z,4.53
2023-05-03T14:14:02.299Z,4.43
2023-05-03T14:18:58.759Z,4.13
2023-05-03T14:21:25.162Z,3.83
2023-05-03T14:23:51.603Z,3.65
2023-05-03T14:26:19.682Z,4.35
2023-05-03T14:28:46.641Z,3.90
2023-05-03T14:31:13.380Z,4.38
2023-05-03T14:33:39.771Z,4.38
2023-05-03T14:36:08.210Z,4.60
2023-05-03T14:38:35.403Z,4.47
2023-05-03T14:41:01.842Z,4.60
2023-05-03T14:43:28.679Z,4.10
2023-05-03T14:45:55.484Z,3.70
2023-05-03T14:48:21.884Z,4.80
2023-05-03T14:50:49.538Z,3.90
2023-05-03T14:53:17.175Z,3.70
2023-05-03T14:55:43.641Z,4.30
2023-05-03T14:58:10.559Z,4.45
2023-05-03T15:00:39.565Z,4.57
2023-05-03T15:03:09.070Z,4.07
2023-05-03T15:05:42.487Z,3.90
2023-05-03T15:08:09.066Z,3.75
2023-05-03T15:10:38.599Z,3.67
2023-05-03T15:13:05.491Z,3.53
2023-05-03T15:15:31.922Z,3.63
2023-05-03T15:17:58.509Z,3.72
2023-05-03T15:20:25.400Z,3.83
2023-05-03T15:22:51.970Z,3.67
2023-05-03T15:25:18.554Z,3.90
2023-05-03T15:27:45.143Z,4.43
2023-05-03T15:30:15.146Z,3.67
2023-05-03T15:32:41.651Z,4.05
2023-05-03T15:35:08.377Z,3.80
2023-05-03T15:37:37.233Z,3.70
2023-05-03T15:40:05.568Z,3.45
2023-05-03T15:44:58.505Z,3.72
2023-05-03T15:47:24.882Z,3.88
2023-05-03T15:49:51.497Z,3.72
2023-05-03T15:52:19.719Z,3.75
2023-05-03T15:54:46.938Z,3.22
2023-05-03T15:57:13.816Z,3.70
2023-05-03T15:59:40.544Z,3.50
2023-05-03T16:02:08.040Z,3.28
2023-05-03T16:04:37.191Z,2.72
2023-05-03T16:07:05.087Z,3.20
2023-05-03T16:09:31.776Z,3.85
2023-05-03T16:11:59.147Z,3.45
2023-05-03T16:14:26.406Z,3.95
2023-05-03T16:16:54.462Z,3.55
2023-05-03T16:19:21.415Z,3.63
2023-05-03T16:21:48.050Z,3.15
2023-05-03T16:24:14.636Z,3.58
2023-05-03T16:26:41.353Z,3.47
2023-05-03T16:29:07.954Z,3.17
2023-05-03T16:31:34.770Z,3.47
2023-05-03T16:34:01.789Z,3.25
2023-05-03T16:36:30.430Z,3.15
2023-05-03T16:38:56.875Z,3.17
2023-05-03T16:41:24.209Z,3.55
2023-05-03T16:43:50.800Z,3.70
2023-05-03T16:46:17.479Z,3.67
2023-05-03T16:48:43.913Z,3.20
2023-05-03T16:51:10.293Z,3.15
2023-05-03T16:53:36.874Z,3.20
2023-05-03T16:56:03.593Z,4.13
2023-05-03T16:58:29.977Z,3.08
2023-05-03T17:00:56.496Z,2.85
2023-05-03T17:03:23.294Z,3.05
2023-05-03T17:05:50.036Z,3.65
2023-05-03T17:08:16.645Z,3.22
2023-05-03T17:10:44.806Z,3.10
2023-05-03T17:13:11.626Z,3.08
2023-05-03T17:15:38.428Z,3.28
2023-05-03T17:18:05.076Z,3.30
2023-05-03T17:20:32.896Z,3.35
2023-05-03T17:22:59.514Z,3.65
2023-05-03T17:25:26.285Z,3.40
2023-05-03T17:27:53.292Z,3.75
2023-05-03T17:30:21.270Z,3.22
2023-05-03T17:32:48.405Z,3.17
2023-05-03T17:35:15.150Z,3.22
2023-05-03T17:37:41.850Z,2.75
2023-05-03T17:40:11.654Z,3.50
2023-05-03T17:42:38.109Z,3.17
2023-05-03T17:45:05.458Z,2.83
2023-05-03T17:47:32.155Z,3.00
2023-05-03T17:49:58.565Z,3.45
2023-05-03T17:52:25.000Z,2.72
2023-05-03T17:54:52.455Z,3.03
2023-05-03T17:57:22.089Z,3.00
2023-05-03T17:59:48.546Z,3.05
2023-05-03T18:02:15.149Z,2.95
2023-05-03T18:04:41.608Z,3.42
2023-05-03T18:07:08.100Z,2.85
2023-05-03T18:09:34.518Z,3.17
2023-05-03T18:12:02.214Z,3.08
2023-05-03T18:14:28.831Z,2.97
2023-05-03T18:16:55.378Z,2.92
2023-05-03T18:19:22.097Z,3.80
2023-05-03T18:21:48.382Z,2.78
2023-05-03T18:24:15.825Z,3.28
2023-05-03T18:26:42.253Z,3.30
2023-05-03T18:29:08.801Z,2.83
2023-05-03T18:31:35.144Z,2.78
2023-05-03T18:34:01.570Z,2.70
2023-05-03T18:36:27.983Z,2.78
2023-05-03T18:38:54.515Z,3.30
2023-05-03T18:41:20.958Z,2.78
2023-05-03T18:43:47.848Z,2.85
2023-05-03T18:46:20.402Z,2.97
2023-05-03T18:48:47.664Z,3.28
2023-05-03T18:51:14.493Z,3.10
2023-05-03T18:53:40.989Z,3.03
2023-05-03T18:56:07.422Z,2.95
2023-05-03T18:58:34.016Z,3.33
2023-05-03T19:01:00.934Z,3.30
2023-05-03T19:03:31.434Z,3.22
2023-05-03T19:06:07.232Z,2.63
2023-05-03T19:08:34.089Z,2.70
2023-05-03T19:11:11.224Z,2.78
2023-05-03T19:13:37.716Z,3.72
2023-05-03T19:16:04.287Z,3.38
2023-05-03T19:18:31.564Z,3.90
2023-05-03T19:20:58.122Z,4.00
2023-05-03T19:23:24.468Z,3.92
2023-05-03T19:25:50.792Z,5.18
2023-05-03T19:28:17.190Z,4.22
2023-05-03T19:30:45.487Z,3.97
2023-05-03T19:33:12.208Z,4.88
2023-05-03T19:35:39.949Z,4.03
2023-05-03T19:38:07.133Z,4.22
2023-05-03T19:40:34.023Z,4.28
2023-05-03T19:43:00.447Z,5.13
2023-05-03T19:45:26.818Z,4.68
2023-05-03T19:47:53.241Z,4.57
2023-05-03T19:50:19.589Z,4.07
2023-05-03T19:52:46.600Z,4.40
2023-05-03T19:55:14.298Z,5.10
2023-05-03T19:57:40.671Z,4.70
2023-05-03T20:00:08.576Z,4.82
2023-05-03T20:02:37.397Z,5.07
2023-05-03T20:05:04.996Z,4.82
2023-05-03T20:07:32.489Z,5.28
2023-05-03T20:09:59.078Z,4.82
2023-05-03T20:12:26.708Z,5.15
2023-05-03T20:14:53.138Z,5.00
2023-05-03T20:17:19.640Z,5.05
2023-05-03T20:19:50.150Z,5.10
2023-05-03T20:22:17.891Z,4.60
2023-05-03T20:24:44.849Z,4.93
2023-05-03T20:27:11.293Z,4.30
2023-05-03T20:29:37.946Z,4.20
2023-05-03T20:32:04.530Z,4.50
2023-05-03T20:34:30.912Z,4.93
2023-05-03T20:36:57.629Z,4.80
2023-05-03T20:39:24.041Z,5.28
2023-05-03T20:41:50.610Z,4.72
2023-05-03T20:44:17.023Z,4.80
2023-05-03T20:46:43.367Z,4.80
2023-05-03T20:49:10.390Z,4.57
2023-05-03T20:51:37.256Z,5.07
2023-05-03T20:54:03.890Z,5.00
2023-05-03T20:56:32.117Z,5.18
2023-05-03T20:58:58.498Z,5.15
2023-05-03T21:01:24.998Z,5.20
2023-05-03T21:03:51.705Z,5.53
2023-05-03T21:06:18.253Z,5.05
2023-05-03T21:08:44.619Z,4.95
2023-05-03T21:11:11.188Z,5.07
2023-05-03T21:13:37.642Z,5.22
2023-05-03T21:16:04.854Z,5.22
2023-05-03T21:18:31.213Z,5.15
2023-05-03T21:20:57.578Z,4.65
2023-05-03T21:23:25.180Z,4.72
2023-05-03T21:25:55.174Z,4.57
2023-05-03T21:28:22.486Z,4.65
2023-05-03T21:30:50.444Z,5.03
2023-05-03T21:33:16.882Z,5.03
2023-05-03T21:35:43.521Z,5.43
2023-05-03T21:38:10.121Z,5.05
2023-05-03T21:40:37.091Z,5.20
2023-05-03T21:43:05.405Z,4.90
2023-05-03T21:45:32.184Z,4.28
2023-05-03T21:47:58.663Z,4.75
2023-05-03T21:50:25.190Z,4.80
2023-05-03T21:52:51.930Z,4.70
2023-05-03T21:55:19.980Z,4.82
2023-05-03T21:57:46.576Z,5.78
2023-05-03T22:00:17.636Z,4.93
2023-05-03T22:02:44.454Z,4.97
2023-05-03T22:05:11.092Z,4.45
2023-05-03T22:07:37.480Z,4.47
2023-05-03T22:10:04.559Z,4.95
2023-05-03T22:12:31.512Z,4.80
2023-05-03T22:14:57.868Z,5.07
2023-05-03T22:17:26.191Z,4.45
2023-05-03T22:19:52.978Z,5.25
2023-05-03T22:22:19.333Z,4.35
2023-05-03T22:24:45.916Z,4.47
2023-05-03T22:27:12.295Z,4.78
2023-05-03T22:29:38.851Z,4.45
2023-05-03T22:32:06.747Z,4.70
2023-05-03T22:34:33.478Z,4.13
2023-05-03T22:37:02.214Z,4.68
2023-05-03T22:39:28.864Z,4.55
2023-05-03T22:41:55.482Z,4.38
2023-05-03T22:44:21.793Z,4.85
2023-05-03T22:46:48.136Z,4.45
2023-05-03T22:49:14.536Z,4.75
2023-05-03T22:51:41.320Z,4.15
2023-05-03T22:54:07.882Z,4.47
2023-05-03T22:56:34.504Z,4.50
2023-05-03T22:59:01.016Z,5.13
2023-05-03T23:01:27.626Z,4.82
2023-05-03T23:03:54.184Z,4.30
2023-05-03T23:06:20.738Z,4.82
2023-05-03T23:08:47.121Z,3.83
2023-05-03T23:11:13.612Z,4.50
2023-05-03T23:13:40.000Z,3.92
2023-05-03T23:16:07.949Z,4.55
2023-05-03T23:18:34.605Z,4.50
2023-05-03T23:21:01.170Z,4.75
2023-05-03T23:23:27.828Z,4.63
2023-05-03T23:25:54.321Z,4.85
2023-05-03T23:28:21.225Z,5.00
2023-05-03T23:30:48.137Z,4.70
2023-05-03T23:33:15.045Z,4.38
2023-05-03T23:35:41.832Z,4.93
2023-05-03T23:38:08.495Z,4.18
2023-05-03T23:40:34.923Z,4.65
2023-05-03T23:43:01.538Z,5.07
2023-05-03T23:45:27.928Z,4.55
2023-05-03T23:47:54.362Z,4.93
2023-05-03T23:50:21.416Z,4.82
2023-05-03T23:52:47.877Z,4.60
2023-05-03T23:55:14.251Z,5.00
2023-05-03T23:57:40.916Z,4.43
